createdAt,value
2019-03-26T00:01:33.967Z,10.00
2019-03-26T00:04:05.971Z,8.97
2019-03-26T00:06:40.183Z,9.00
2019-03-26T00:09:12.614Z,8.43
2019-03-26T00:11:43.715Z,9.07
2019-03-26T00:14:14.745Z,7.87
2019-03-26T00:16:46.360Z,8.33
2019-03-26T00:19:16.173Z,10.10
2019-03-26T00:21:46.694Z,9.50
2019-03-26T00:24:16.799Z,9.47
2019-03-26T00:26:47.606Z,9.47
2019-03-26T00:29:16.948Z,9.17
2019-03-26T00:31:48.371Z,9.07
2019-03-26T00:34:24.622Z,9.30
2019-03-26T00:36:59.421Z,9.70
2019-03-26T00:39:29.782Z,9.80
2019-03-26T00:42:00.786Z,9.47
2019-03-26T00:44:29.935Z,10.37
2019-03-26T00:47:01.909Z,9.80
2019-03-26T00:49:30.684Z,9.37
2019-03-26T00:51:59.446Z,10.00
2019-03-26T00:54:31.220Z,8.60
2019-03-26T00:57:02.042Z,10.67
2019-03-26T00:59:31.755Z,8.83
2019-03-26T01:02:01.147Z,10.23
2019-03-26T01:04:32.950Z,8.83
2019-03-26T01:07:03.170Z,11.53
2019-03-26T01:09:33.345Z,11.07
2019-03-26T01:12:03.855Z,10.67
2019-03-26T01:14:33.851Z,10.17
2019-03-26T01:17:02.860Z,10.03
2019-03-26T01:19:36.836Z,11.07
2019-03-26T01:22:08.688Z,10.97
2019-03-26T01:24:40.433Z,10.97
2019-03-26T01:27:09.180Z,11.17
2019-03-26T01:29:39.325Z,11.00
2019-03-26T01:32:09.202Z,11.90
2019-03-26T01:34:45.793Z,11.70
2019-03-26T01:37:10.784Z,9.93
2019-03-26T01:39:45.610Z,9.50
2019-03-26T01:42:13.065Z,9.27
2019-03-26T01:44:45.959Z,8.53
2019-03-26T01:47:20.862Z,9.40
2019-03-26T01:49:46.435Z,8.90
2019-03-26T01:52:16.691Z,9.80
2019-03-26T01:54:45.409Z,9.13
2019-03-26T01:57:14.284Z,10.00
2019-03-26T01:59:44.784Z,8.63
2019-03-26T02:02:14.992Z,9.87
2019-03-26T02:04:58.843Z,9.50
2019-03-26T02:07:16.759Z,8.83
2019-03-26T02:09:45.936Z,10.13
2019-03-26T02:12:18.655Z,9.33
2019-03-26T02:14:49.215Z,7.87
2019-03-26T02:17:20.364Z,8.80
2019-03-26T02:19:50.732Z,8.97
2019-03-26T02:22:22.757Z,8.57
2019-03-26T02:24:52.355Z,8.87
2019-03-26T02:27:24.404Z,8.13
2019-03-26T02:29:53.544Z,8.50
2019-03-26T02:32:22.359Z,8.30
2019-03-26T02:34:52.440Z,8.30
2019-03-26T02:37:25.808Z,8.53
2019-03-26T02:39:54.840Z,8.07
2019-03-26T02:42:23.489Z,8.77
2019-03-26T02:44:53.088Z,8.20
2019-03-26T02:47:22.241Z,9.27
2019-03-26T02:49:53.556Z,8.70
2019-03-26T02:52:24.254Z,7.43
2019-03-26T02:54:54.683Z,8.70
2019-03-26T02:57:25.132Z,8.73
2019-03-26T02:59:53.846Z,8.07
2019-03-26T03:02:24.156Z,8.57
2019-03-26T03:04:53.527Z,7.53
2019-03-26T03:07:25.362Z,8.07
2019-03-26T03:09:54.822Z,7.33
2019-03-26T03:12:25.146Z,8.37
2019-03-26T03:14:54.402Z,8.50
2019-03-26T03:17:30.262Z,8.17
2019-03-26T03:20:01.259Z,8.60
2019-03-26T03:22:34.506Z,8.90
2019-03-26T03:25:04.542Z,8.50
2019-03-26T03:27:33.874Z,9.63
2019-03-26T03:30:03.461Z,9.47
2019-03-26T03:32:34.046Z,9.27
2019-03-26T03:35:02.965Z,9.37
2019-03-26T03:37:32.974Z,9.60
2019-03-26T03:40:01.863Z,9.10
2019-03-26T03:42:30.577Z,9.43
2019-03-26T03:44:59.853Z,9.33
2019-03-26T03:47:31.570Z,8.27
2019-03-26T03:50:01.425Z,10.57
2019-03-26T03:52:33.341Z,9.27
2019-03-26T03:55:07.079Z,10.00
2019-03-26T03:57:40.462Z,9.93
2019-03-26T04:00:22.651Z,11.13
2019-03-26T04:02:53.148Z,11.13
2019-03-26T04:05:22.364Z,11.43
2019-03-26T04:07:52.651Z,12.53
2019-03-26T04:10:23.331Z,11.70
2019-03-26T04:12:56.402Z,11.43
2019-03-26T04:15:26.861Z,11.50
2019-03-26T04:17:59.871Z,12.63
2019-03-26T04:20:31.830Z,12.27
2019-03-26T04:23:02.361Z,12.27
2019-03-26T04:25:33.018Z,12.20
2019-03-26T04:28:07.530Z,12.87
2019-03-26T04:30:38.232Z,13.87
2019-03-26T04:33:08.581Z,13.73
2019-03-26T04:35:46.090Z,14.27
2019-03-26T04:38:16.848Z,11.30
2019-03-26T04:40:47.792Z,12.50
2019-03-26T04:43:19.005Z,13.87
2019-03-26T04:45:50.252Z,14.03
2019-03-26T04:48:19.649Z,13.77
2019-03-26T04:50:49.186Z,14.27
2019-03-26T04:53:20.608Z,14.27
2019-03-26T04:55:51.859Z,14.23
2019-03-26T04:58:20.506Z,16.07
2019-03-26T05:00:52.343Z,13.53
2019-03-26T05:03:26.589Z,13.67
2019-03-26T05:05:56.928Z,11.73
2019-03-26T05:08:26.240Z,13.63
2019-03-26T05:10:55.170Z,14.10
2019-03-26T05:13:28.774Z,13.33
2019-03-26T05:16:00.238Z,15.60
2019-03-26T05:18:29.026Z,14.33
2019-03-26T05:20:58.547Z,13.90
2019-03-26T05:23:27.311Z,13.90
2019-03-26T05:25:56.085Z,11.73
2019-03-26T05:28:25.855Z,12.60
2019-03-26T05:30:56.174Z,12.97
2019-03-26T05:33:25.020Z,12.53
2019-03-26T05:35:53.820Z,11.97
2019-03-26T05:38:23.185Z,13.27
2019-03-26T05:40:51.958Z,14.00
2019-03-26T05:43:22.876Z,13.80
2019-03-26T05:45:58.484Z,11.13
2019-03-26T05:48:39.790Z,13.63
2019-03-26T05:54:07.184Z,13.50
2019-03-26T05:56:38.306Z,16.47
2019-03-26T05:59:10.040Z,15.03
2019-03-26T06:01:39.988Z,16.63
2019-03-26T06:04:11.091Z,16.67
2019-03-26T06:06:45.766Z,16.03
2019-03-26T06:09:16.177Z,16.20
2019-03-26T06:11:55.733Z,16.23
2019-03-26T06:14:26.360Z,18.70
2019-03-26T06:16:55.247Z,16.17
2019-03-26T06:19:26.288Z,17.67
2019-03-26T06:21:54.947Z,17.17
2019-03-26T06:24:24.319Z,17.37
2019-03-26T06:26:54.463Z,16.50
2019-03-26T06:29:23.781Z,17.40
2019-03-26T06:31:54.189Z,17.17
2019-03-26T06:34:30.217Z,17.23
2019-03-26T06:37:01.868Z,19.03
2019-03-26T06:39:31.358Z,15.77
2019-03-26T06:42:00.072Z,18.33
2019-03-26T06:44:30.431Z,17.63
2019-03-26T06:47:00.506Z,21.07
2019-03-26T06:49:29.180Z,17.60
2019-03-26T06:51:59.862Z,17.90
2019-03-26T06:54:31.269Z,17.47
2019-03-26T06:57:00.712Z,18.97
2019-03-26T06:59:29.737Z,17.97
2019-03-26T07:01:59.690Z,17.27
2019-03-26T07:04:28.470Z,17.93
2019-03-26T07:06:57.910Z,18.37
2019-03-26T07:09:29.162Z,20.10
2019-03-26T07:12:00.555Z,16.33
2019-03-26T07:14:29.482Z,17.43
2019-03-26T07:16:58.227Z,15.43
2019-03-26T07:19:27.028Z,17.70
2019-03-26T07:21:55.897Z,17.60
2019-03-26T07:24:25.755Z,18.13
2019-03-26T07:26:54.507Z,17.77
2019-03-26T07:29:23.500Z,17.67
2019-03-26T07:31:52.275Z,13.47
2019-03-26T07:34:21.040Z,14.57
2019-03-26T07:36:50.589Z,12.90
2019-03-26T07:39:19.160Z,13.53
2019-03-26T07:41:48.165Z,12.30
2019-03-26T07:44:16.901Z,12.50
2019-03-26T07:46:45.668Z,11.67
2019-03-26T07:49:16.052Z,11.83
2019-03-26T07:51:46.053Z,11.37
2019-03-26T07:54:16.589Z,12.20
2019-03-26T07:56:45.794Z,11.53
2019-03-26T07:59:14.499Z,13.20
2019-03-26T08:01:44.427Z,15.90
2019-03-26T08:04:13.178Z,14.20
2019-03-26T08:06:43.700Z,18.47
2019-03-26T08:09:12.610Z,17.20
2019-03-26T08:11:41.527Z,15.77
2019-03-26T08:14:11.792Z,14.87
2019-03-26T08:16:40.485Z,12.17
2019-03-26T08:19:10.293Z,15.77
2019-03-26T08:21:40.396Z,14.90
2019-03-26T08:24:11.572Z,16.00
2019-03-26T08:26:40.517Z,13.03
2019-03-26T08:29:09.206Z,14.83
2019-03-26T08:31:39.225Z,14.50
2019-03-26T08:34:08.219Z,13.73
2019-03-26T08:36:37.008Z,13.03
2019-03-26T08:39:09.877Z,12.77
2019-03-26T08:41:39.507Z,13.53
2019-03-26T08:44:08.251Z,11.60
2019-03-26T08:46:38.316Z,10.10
2019-03-26T08:49:08.576Z,12.30
2019-03-26T08:51:39.691Z,11.17
2019-03-26T08:54:08.516Z,10.97
2019-03-26T08:56:37.348Z,11.10
2019-03-26T08:59:07.523Z,10.23
2019-03-26T09:01:37.732Z,10.40
2019-03-26T09:04:07.593Z,9.47
2019-03-26T09:06:37.066Z,10.00
2019-03-26T09:09:09.283Z,8.97
2019-03-26T09:11:42.706Z,9.77
2019-03-26T09:14:12.396Z,9.83
2019-03-26T09:16:40.964Z,9.80
2019-03-26T09:19:11.182Z,8.53
2019-03-26T09:21:40.177Z,10.10
2019-03-26T09:24:13.239Z,10.03
2019-03-26T09:26:43.543Z,11.07
2019-03-26T09:29:12.186Z,10.07
2019-03-26T09:31:41.673Z,10.20
2019-03-26T09:34:10.582Z,11.47
2019-03-26T09:36:39.421Z,12.33
2019-03-26T09:39:08.789Z,11.83
2019-03-26T09:41:37.616Z,11.30
2019-03-26T09:44:06.219Z,11.60
2019-03-26T09:46:35.983Z,10.93
2019-03-26T09:49:09.221Z,11.67
2019-03-26T09:51:38.845Z,8.87
2019-03-26T09:54:07.703Z,10.83
2019-03-26T09:56:36.704Z,11.17
2019-03-26T09:59:05.536Z,8.90
2019-03-26T10:01:34.230Z,9.50
2019-03-26T10:04:03.285Z,11.00
2019-03-26T10:06:32.006Z,11.07
2019-03-26T10:09:05.112Z,10.83
2019-03-26T10:11:34.424Z,12.17
2019-03-26T10:14:03.914Z,12.23
2019-03-26T10:16:34.291Z,10.83
2019-03-26T10:19:03.049Z,9.37
2019-03-26T10:21:36.518Z,8.83
2019-03-26T10:24:05.026Z,13.23
2019-03-26T10:26:35.527Z,11.13
2019-03-26T10:29:19.030Z,11.47
2019-03-26T10:31:38.307Z,13.60
2019-03-26T10:34:07.127Z,12.40
2019-03-26T10:36:37.461Z,13.47
2019-03-26T10:39:10.160Z,10.17
2019-03-26T10:41:39.236Z,9.47
2019-03-26T10:44:09.890Z,8.03
2019-03-26T10:46:38.916Z,10.03
2019-03-26T10:49:10.441Z,11.47
2019-03-26T10:51:39.351Z,8.67
2019-03-26T10:54:11.965Z,9.73
2019-03-26T10:56:42.217Z,11.23
2019-03-26T10:59:10.900Z,11.80
2019-03-26T11:01:40.301Z,9.97
2019-03-26T11:04:12.008Z,8.10
2019-03-26T11:06:40.754Z,8.50
2019-03-26T11:09:23.136Z,9.27
2019-03-26T11:11:41.428Z,8.70
2019-03-26T11:14:10.294Z,8.80
2019-03-26T11:16:39.154Z,17.67
2019-03-26T11:19:08.116Z,10.93
2019-03-26T11:21:36.943Z,10.00
2019-03-26T11:24:09.855Z,7.90
2019-03-26T11:26:41.391Z,9.30
2019-03-26T11:29:13.262Z,8.13
2019-03-26T11:31:42.880Z,9.77
2019-03-26T11:34:12.373Z,8.57
2019-03-26T11:36:42.674Z,7.50
2019-03-26T11:39:11.992Z,7.67
2019-03-26T11:41:41.545Z,8.70
2019-03-26T11:44:11.638Z,7.30
2019-03-26T11:46:44.594Z,8.03
2019-03-26T11:49:14.323Z,8.23
2019-03-26T11:51:47.408Z,10.80
2019-03-26T11:54:17.213Z,8.97
2019-03-26T11:56:45.897Z,8.50
2019-03-26T11:59:15.842Z,9.13
2019-03-26T12:01:44.551Z,8.17
2019-03-26T12:04:14.329Z,8.33
2019-03-26T12:06:43.197Z,8.17
2019-03-26T12:09:16.367Z,7.63
2019-03-26T12:11:45.201Z,8.20
2019-03-26T12:14:14.196Z,7.60
2019-03-26T12:19:32.044Z,6.67
2019-03-26T12:22:02.294Z,6.63
2019-03-26T12:24:33.393Z,7.10
2019-03-26T12:27:02.101Z,6.90
2019-03-26T12:29:34.961Z,7.97
2019-03-26T12:32:03.814Z,5.77
2019-03-26T12:34:35.709Z,5.67
2019-03-26T12:37:04.483Z,6.10
2019-03-26T12:39:37.734Z,6.27
2019-03-26T12:42:14.224Z,5.50
2019-03-26T12:44:40.776Z,7.60
2019-03-26T12:47:10.048Z,7.30
2019-03-26T12:49:43.551Z,6.20
2019-03-26T12:52:13.180Z,5.87
2019-03-26T12:54:42.074Z,5.87
2019-03-26T12:57:13.847Z,6.40
2019-03-26T12:59:44.476Z,7.73
2019-03-26T13:02:15.152Z,6.43
2019-03-26T13:04:45.270Z,5.70
2019-03-26T13:07:15.067Z,6.73
2019-03-26T13:09:47.445Z,5.57
2019-03-26T13:12:18.368Z,5.30
2019-03-26T13:14:49.084Z,5.00
2019-03-26T13:17:18.921Z,5.03
2019-03-26T13:19:47.929Z,4.43
2019-03-26T13:22:17.056Z,3.87
2019-03-26T13:24:45.669Z,3.00
2019-03-26T13:27:16.858Z,3.57
2019-03-26T13:29:45.676Z,2.70
2019-03-26T13:32:16.109Z,3.30
2019-03-26T13:34:47.089Z,2.60
2019-03-26T13:37:17.984Z,3.30
2019-03-26T13:39:47.452Z,3.20
2019-03-26T13:42:17.893Z,3.20
2019-03-26T13:44:49.102Z,2.77
2019-03-26T13:47:17.838Z,2.80
2019-03-26T13:49:47.958Z,7.63
2019-03-26T13:52:16.895Z,3.70
2019-03-26T13:54:46.991Z,3.87
2019-03-26T13:57:15.658Z,4.03
2019-03-26T13:59:49.078Z,3.90
2019-03-26T14:02:18.209Z,4.03
2019-03-26T14:04:50.755Z,3.20
2019-03-26T14:07:21.553Z,4.07
2019-03-26T14:09:50.462Z,7.00
2019-03-26T14:12:20.359Z,3.00
2019-03-26T14:14:51.024Z,4.37
2019-03-26T14:17:19.622Z,4.23
2019-03-26T14:19:48.407Z,4.13
2019-03-26T14:22:17.830Z,4.40
2019-03-26T14:24:46.648Z,5.77
2019-03-26T14:27:15.676Z,7.00
2019-03-26T14:29:45.227Z,4.30
2019-03-26T14:32:15.495Z,5.43
2019-03-26T14:34:47.747Z,7.90
2019-03-26T14:37:19.377Z,5.47
2019-03-26T14:39:50.322Z,7.40
2019-03-26T14:42:20.556Z,6.30
2019-03-26T14:44:50.386Z,7.00
2019-03-26T14:47:21.224Z,5.90
2019-03-26T14:49:50.484Z,8.17
2019-03-26T14:52:22.114Z,6.57
2019-03-26T14:54:54.369Z,5.73
2019-03-26T14:57:26.094Z,4.93
2019-03-26T14:59:56.072Z,6.33
2019-03-26T15:02:25.972Z,5.70
2019-03-26T15:04:55.456Z,3.50
2019-03-26T15:07:24.780Z,2.87
2019-03-26T15:09:56.538Z,2.17
2019-03-26T15:12:28.522Z,0.73
2019-03-26T15:14:57.524Z,1.20
2019-03-26T15:17:29.856Z,0.47
2019-03-26T15:19:58.516Z,0.67
2019-03-26T15:22:27.143Z,0.57
2019-03-26T15:24:59.359Z,0.70
2019-03-26T15:27:26.859Z,0.77
2019-03-26T15:29:57.151Z,0.70
2019-03-26T15:32:30.549Z,0.77
2019-03-26T15:35:01.116Z,0.77
2019-03-26T15:37:38.333Z,0.70
2019-03-26T15:40:08.927Z,0.80
2019-03-26T15:42:43.091Z,1.03
2019-03-26T15:45:14.172Z,1.00
2019-03-26T15:47:44.664Z,1.03
2019-03-26T15:50:16.552Z,1.17
2019-03-26T15:52:47.326Z,1.07
2019-03-26T15:55:16.163Z,0.87
2019-03-26T15:57:48.604Z,1.37
2019-03-26T16:00:21.892Z,0.80
2019-03-26T16:02:50.639Z,0.90
2019-03-26T16:05:21.560Z,1.43
2019-03-26T16:07:50.608Z,0.50
2019-03-26T16:10:19.534Z,1.33
2019-03-26T16:12:48.735Z,1.10
2019-03-26T16:15:19.481Z,1.30
2019-03-26T16:17:50.114Z,1.23
2019-03-26T16:20:20.597Z,1.50
2019-03-26T16:22:51.094Z,1.30
2019-03-26T16:25:21.882Z,1.30
2019-03-26T16:27:54.677Z,1.60
2019-03-26T16:30:30.928Z,4.03
2019-03-26T16:33:01.332Z,1.60
2019-03-26T16:35:33.497Z,2.00
2019-03-26T16:38:02.962Z,2.40
2019-03-26T16:40:36.354Z,1.30
2019-03-26T16:43:05.204Z,1.90
2019-03-26T16:45:36.358Z,2.83
2019-03-26T16:48:05.268Z,2.37
2019-03-26T16:50:37.159Z,2.40
2019-03-26T16:53:08.224Z,2.60
2019-03-26T16:55:41.991Z,2.27
2019-03-26T16:58:14.890Z,2.37
2019-03-26T17:00:49.539Z,2.57
2019-03-26T17:03:30.778Z,3.37
2019-03-26T17:05:50.616Z,3.23
2019-03-26T17:08:25.169Z,2.20
2019-03-26T17:10:57.855Z,2.13
2019-03-26T17:13:26.548Z,2.90
2019-03-26T17:15:57.834Z,2.40
2019-03-26T17:18:30.150Z,2.93
2019-03-26T17:21:02.417Z,2.10
2019-03-26T17:23:35.321Z,2.93
2019-03-26T17:26:06.302Z,3.10
2019-03-26T17:28:38.894Z,2.60
2019-03-26T17:31:09.244Z,3.20
2019-03-26T17:33:38.973Z,3.13
2019-03-26T17:36:08.217Z,1.87
2019-03-26T17:38:37.397Z,2.50
2019-03-26T17:41:07.447Z,2.63
2019-03-26T17:43:39.866Z,2.80
2019-03-26T17:46:11.305Z,2.20
2019-03-26T17:48:43.679Z,2.27
2019-03-26T17:51:18.235Z,2.63
2019-03-26T17:53:46.869Z,3.20
2019-03-26T17:56:15.476Z,3.30
2019-03-26T17:58:46.806Z,2.30
2019-03-26T18:01:19.595Z,2.63
2019-03-26T18:03:50.736Z,2.53
2019-03-26T18:06:21.649Z,2.07
2019-03-26T18:09:00.362Z,2.33
2019-03-26T18:11:30.483Z,2.33
2019-03-26T18:14:02.839Z,1.67
2019-03-26T18:16:32.059Z,1.37
2019-03-26T18:19:05.717Z,2.10
2019-03-26T18:21:35.421Z,1.70
2019-03-26T18:24:06.116Z,1.87
2019-03-26T18:26:38.856Z,2.07
2019-03-26T18:29:10.690Z,1.80
2019-03-26T18:31:41.345Z,1.73
2019-03-26T18:34:17.123Z,1.77
2019-03-26T18:36:48.960Z,1.83
2019-03-26T18:39:29.532Z,1.40
2019-03-26T18:42:01.744Z,1.50
2019-03-26T18:44:33.858Z,1.70
2019-03-26T18:47:04.378Z,1.47
2019-03-26T18:49:35.616Z,2.10
2019-03-26T18:52:08.148Z,1.70
2019-03-26T18:54:39.232Z,1.90
2019-03-26T18:57:08.774Z,2.27
2019-03-26T18:59:38.806Z,2.27
2019-03-26T19:02:07.628Z,2.73
2019-03-26T19:04:36.352Z,1.90
2019-03-26T19:07:07.850Z,2.00
2019-03-26T19:09:38.939Z,2.00
2019-03-26T19:12:11.419Z,2.27
2019-03-26T19:14:43.477Z,1.80
2019-03-26T19:17:14.258Z,2.67
2019-03-26T19:19:43.067Z,1.80
2019-03-26T19:22:14.631Z,2.57
2019-03-26T19:24:43.544Z,3.00
2019-03-26T19:27:15.958Z,2.47
2019-03-26T19:29:50.938Z,3.03
2019-03-26T19:32:22.508Z,3.10
2019-03-26T19:34:51.249Z,1.63
2019-03-26T19:37:26.897Z,2.80
2019-03-26T19:40:02.676Z,1.97
2019-03-26T19:42:35.705Z,2.53
2019-03-26T19:45:07.089Z,2.50
2019-03-26T19:47:40.147Z,1.77
2019-03-26T19:50:10.378Z,1.43
2019-03-26T19:52:43.743Z,2.20
2019-03-26T19:55:16.683Z,2.33
2019-03-26T19:57:49.702Z,1.30
2019-03-26T20:00:19.702Z,2.60
2019-03-26T20:02:53.291Z,2.00
2019-03-26T20:05:25.842Z,2.03
2019-03-26T20:07:55.347Z,2.00
2019-03-26T20:10:24.497Z,1.60
2019-03-26T20:12:54.110Z,1.37
2019-03-26T20:15:28.758Z,2.07
2019-03-26T20:17:59.319Z,1.40
2019-03-26T20:20:29.799Z,1.90
2019-03-26T20:22:59.832Z,1.53
2019-03-26T20:25:28.658Z,1.60
2019-03-26T20:28:00.347Z,1.63
2019-03-26T20:30:33.041Z,2.03
2019-03-26T20:33:05.249Z,2.17
2019-03-26T20:35:38.275Z,1.77
2019-03-26T20:38:06.897Z,1.20
2019-03-26T20:40:37.150Z,1.60
2019-03-26T20:43:09.889Z,2.10
2019-03-26T20:45:40.260Z,1.70
2019-03-26T20:48:11.096Z,1.77
2019-03-26T20:50:45.044Z,1.47
2019-03-26T20:53:15.275Z,1.63
2019-03-26T20:55:54.522Z,1.63
2019-03-26T20:58:29.304Z,1.37
2019-03-26T21:00:58.556Z,1.60
2019-03-26T21:03:29.847Z,1.63
2019-03-26T21:06:03.129Z,1.80
2019-03-26T21:08:33.281Z,1.60
2019-03-26T21:11:05.583Z,1.50
2019-03-26T21:13:50.748Z,1.43
2019-03-26T21:16:14.241Z,2.17
2019-03-26T21:18:44.809Z,1.50
2019-03-26T21:21:17.040Z,1.60
2019-03-26T21:23:51.528Z,1.87
2019-03-26T21:26:21.909Z,1.53
2019-03-26T21:28:52.633Z,1.93
2019-03-26T21:31:23.142Z,1.97
2019-03-26T21:33:59.372Z,1.50
2019-03-26T21:36:30.269Z,1.93
2019-03-26T21:38:58.941Z,1.93
2019-03-26T21:41:28.551Z,1.80
2019-03-26T21:44:04.451Z,1.90
2019-03-26T21:46:31.741Z,2.40
2019-03-26T21:49:01.060Z,1.90
2019-03-26T21:51:29.808Z,1.60
2019-03-26T21:54:00.711Z,2.77
2019-03-26T21:56:30.599Z,2.33
2019-03-26T21:59:02.758Z,2.17
2019-03-26T22:01:33.206Z,2.43
2019-03-26T22:04:02.299Z,2.73
2019-03-26T22:06:33.825Z,1.90
2019-03-26T22:09:07.806Z,2.47
2019-03-26T22:11:49.257Z,2.70
2019-03-26T22:14:17.987Z,2.17
2019-03-26T22:16:46.191Z,1.87
2019-03-26T22:19:28.389Z,2.17
2019-03-26T22:21:50.803Z,2.27
2019-03-26T22:24:19.700Z,2.27
2019-03-26T22:26:49.209Z,2.80
2019-03-26T22:29:21.122Z,2.40
2019-03-26T22:31:52.011Z,2.37
2019-03-26T22:34:25.844Z,2.43
2019-03-26T22:36:58.337Z,1.90
2019-03-26T22:39:29.171Z,2.43
2019-03-26T22:41:57.921Z,2.53
2019-03-26T22:44:31.799Z,2.67
2019-03-26T22:47:01.284Z,1.93
2019-03-26T22:49:36.420Z,1.90
2019-03-26T22:52:06.608Z,2.40
2019-03-26T22:54:36.717Z,1.90
2019-03-26T22:57:08.044Z,2.53
2019-03-26T22:59:37.445Z,2.20
2019-03-26T23:02:06.505Z,2.57
2019-03-26T23:04:36.677Z,1.90
2019-03-26T23:07:08.427Z,2.13
2019-03-26T23:09:41.292Z,2.47
2019-03-26T23:12:12.093Z,2.83
2019-03-26T23:14:45.408Z,2.30
2019-03-26T23:17:14.681Z,1.83
2019-03-26T23:19:45.761Z,2.90
2019-03-26T23:22:16.584Z,2.83
2019-03-26T23:24:47.600Z,3.97
2019-03-26T23:27:18.581Z,4.07
2019-03-26T23:29:48.171Z,3.70
2019-03-26T23:32:16.986Z,3.43
2019-03-26T23:34:47.367Z,4.30
2019-03-26T23:37:19.534Z,3.73
2019-03-26T23:39:50.158Z,4.10
2019-03-26T23:42:24.992Z,4.70
2019-03-26T23:44:58.587Z,4.70
2019-03-26T23:47:25.357Z,5.00
2019-03-26T23:49:54.178Z,4.87
2019-03-26T23:52:25.045Z,2.60
2019-03-26T23:54:54.722Z,3.60
2019-03-26T23:57:27.868Z,2.40
2019-03-26T23:59:57.921Z,3.10
